createdAt,value
2023-01-13T00:10:53.174Z,101040.50
2023-01-13T00:25:59.558Z,101031.28
2023-01-13T00:41:06.179Z,101026.91
2023-01-13T00:56:24.310Z,101026.63
2023-01-13T01:11:37.379Z,101026.88
2023-01-13T01:26:39.279Z,101009.97
2023-01-13T01:42:01.164Z,101015.28
2023-01-13T01:57:03.430Z,101026.94
2023-01-13T02:12:23.898Z,101024.34
2023-01-13T02:27:52.918Z,101017.06
2023-01-13T02:43:39.727Z,101007.03
2023-01-13T02:58:44.091Z,101017.91
2023-01-13T03:13:58.975Z,101002.34
2023-01-13T03:29:12.070Z,100984.78
2023-01-13T03:44:27.626Z,100980.34
2023-01-13T03:59:35.728Z,100987.78
2023-01-13T04:50:20.130Z,100975.56
2023-01-13T05:05:21.961Z,101010.44
2023-01-13T05:20:24.153Z,101018.09
2023-01-13T05:35:26.027Z,101026.81
2023-01-13T05:50:27.990Z,101030.53
2023-01-13T06:05:29.984Z,101036.25
2023-01-13T06:20:32.316Z,101036.28
2023-01-13T06:35:37.866Z,101034.59
2023-01-13T06:50:39.948Z,101033.19
2023-01-13T07:05:52.626Z,101043.34
2023-01-13T11:35:22.126Z,100967.91
2023-01-13T11:50:51.384Z,100977.38
2023-01-13T12:06:03.178Z,100993.28
2023-01-13T12:21:26.077Z,101000.53
2023-01-13T12:36:32.763Z,100995.41
2023-01-13T12:51:37.777Z,101010.28
2023-01-13T13:06:49.732Z,101023.72
2023-01-13T13:22:19.796Z,101025.69
2023-01-13T13:37:30.789Z,101031.06
2023-01-13T13:52:42.969Z,101030.97
2023-01-13T14:08:01.528Z,101034.41
2023-01-13T14:23:05.917Z,101042.06
2023-01-13T14:38:16.449Z,101041.94
2023-01-13T14:53:35.114Z,101039.22
2023-01-13T15:08:39.079Z,101052.84
2023-01-13T15:23:41.279Z,101047.06
2023-01-13T15:38:43.438Z,101053.63
2023-01-13T15:53:45.216Z,101045.69
2023-01-13T16:08:47.582Z,101059.72
2023-01-13T19:38:13.745Z,101007.56
2023-01-13T19:53:17.775Z,101001.91
2023-01-13T20:08:21.356Z,101003.69
2023-01-13T20:23:23.152Z,100997.47
2023-01-13T20:38:25.173Z,101002.63
2023-01-13T20:53:26.993Z,100986.09
2023-01-13T21:08:28.910Z,100983.31
2023-01-13T21:23:30.732Z,100976.38
2023-01-13T21:38:34.068Z,100974.19
2023-01-13T21:53:35.897Z,100959.56
2023-01-13T22:08:37.713Z,100964.59
2023-01-13T22:23:39.537Z,100960.34
2023-01-13T22:38:41.852Z,100955.34
2023-01-13T22:53:44.043Z,100955.88
2023-01-13T23:08:46.812Z,100962.59
2023-01-13T23:23:49.156Z,100953.53
2023-01-13T23:38:52.747Z,100956.53
